Time;durP1;ratioP1;P1;durP2;ratioP2;P2;SDS_P1;SDS_P2;PMS_P1;PMS_P2;Temp;Humidity;BMP_temperature;BMP_pressure;BME280_temperature;BME280_humidity;BME280_pressure;Samples;Min_cycle;Max_cycle;Signal;HPM_P1;HPM_P2
2022/09/29 00:00:34;;;;;;;0.30;0.30;;;;;;;30.98;24.08;96676.31;5063897;28;20036;-82
2022/09/29 00:03:00;;;;;;;0.40;0.30;;;;;;;30.87;23.90;96676.28;5069895;28;20039;-81
2022/09/29 00:05:27;;;;;;;0.60;0.40;;;;;;;31.06;23.70;96677.38;5063903;28;20032;-81
2022/09/29 00:07:53;;;;;;;0.40;0.40;;;;;;;31.19;23.59;96680.44;5055318;28;20112;-81
2022/09/29 00:10:19;;;;;;;0.30;0.30;;;;;;;31.26;23.50;96674.25;5063165;28;20033;-81
2022/09/29 00:12:46;;;;;;;0.30;0.30;;;;;;;31.33;23.35;96676.56;5071090;28;20029;-81
2022/09/29 00:15:12;;;;;;;0.43;0.43;;;;;;;31.25;23.45;96684.06;5055586;28;20108;-81
2022/09/29 00:17:39;;;;;;;1.00;0.30;;;;;;;31.12;23.70;96687.41;5072959;28;20086;-81
2022/09/29 00:20:05;;;;;;;0.50;0.50;;;;;;;30.94;23.74;96687.16;5069345;28;20090;-81
2022/09/29 00:22:31;;;;;;;0.30;0.30;;;;;;;30.88;24.03;96686.34;5073615;28;20493;-81
2022/09/29 00:24:57;;;;;;;0.75;0.50;;;;;;;30.88;23.74;96684.31;5063762;28;20097;-81
2022/09/29 00:27:24;;;;;;;0.30;0.30;;;;;;;30.88;23.96;96689.19;5072477;28;20032;-81
2022/09/29 00:29:51;;;;;;;0.50;0.40;;;;;;;30.45;24.42;96685.75;5067900;28;20037;-80
2022/09/29 00:32:17;;;;;;;0.50;0.43;;;;;;;30.21;24.77;96697.47;5068691;28;20036;-81
2022/09/29 00:34:43;;;;;;;0.70;0.50;;;;;;;30.18;24.87;96692.81;5071180;28;20422;-81
2022/09/29 00:37:10;;;;;;;0.40;0.40;;;;;;;30.07;25.01;96695.63;5073635;28;20541;-81
2022/09/29 00:39:36;;;;;;;0.38;0.35;;;;;;;29.89;25.23;96696.06;5063617;28;20029;-81
2022/09/29 00:42:02;;;;;;;0.60;0.40;;;;;;;29.92;25.23;96701.47;5069438;28;20047;-81
2022/09/29 00:45:00;;;;;;;0.52;0.40;;;;;;;29.78;25.44;96702.41;5072968;28;20038;-81
2022/09/29 00:47:28;;;;;;;0.65;0.60;;;;;;;29.75;25.35;96703.41;5065723;28;20040;-81
2022/09/29 00:50:00;;;;;;;1.02;0.30;;;;;;;29.54;25.76;96695.56;5067465;28;20025;-81
2022/09/29 00:52:48;;;;;;;0.60;0.50;;;;;;;29.59;25.46;96695.59;5072743;28;20769;-81
2022/09/29 00:55:33;;;;;;;0.70;0.70;;;;;;;29.22;25.71;96706.88;5073772;28;20060;-81
2022/09/29 00:58:17;;;;;;;0.50;0.50;;;;;;;29.46;25.34;96709.38;5059543;28;20443;-81
2022/09/29 01:00:44;;;;;;;1.17;0.60;;;;;;;29.67;24.98;96710.03;5069747;28;20068;-82
2022/09/29 01:03:16;;;;;;;0.50;0.50;;;;;;;29.54;24.78;96716.13;5054222;28;20029;-81
2022/09/29 01:06:00;;;;;;;0.63;0.60;;;;;;;29.64;25.06;96723.13;5060255;28;20081;-81
2022/09/29 01:08:51;;;;;;;0.60;0.60;;;;;;;29.71;25.02;96721.91;5056792;28;20190;-81
2022/09/29 01:11:20;;;;;;;0.50;0.50;;;;;;;29.71;24.69;96731.16;5061167;28;20029;-81
2022/09/29 01:13:47;;;;;;;0.63;0.63;;;;;;;29.94;24.25;96730.03;5058646;28;20433;-81
2022/09/29 01:16:13;;;;;;;0.85;0.52;;;;;;;30.00;23.89;96730.06;5056010;28;20143;-81
2022/09/29 01:18:41;;;;;;;1.02;0.90;;;;;;;30.13;23.87;96738.88;5061238;28;20089;-81
2022/09/29 01:21:14;;;;;;;0.60;0.50;;;;;;;30.00;23.94;96745.00;5067178;28;20036;-81
2022/09/29 01:24:11;;;;;;;0.65;0.50;;;;;;;29.87;24.47;96749.56;5062611;28;20501;-81
2022/09/29 01:26:49;;;;;;;0.75;0.55;;;;;;;29.94;24.22;96746.25;5047399;28;20448;-80
2022/09/29 01:29:37;;;;;;;1.05;0.70;;;;;;;29.81;23.96;96748.72;5065893;28;20089;-81
2022/09/29 01:32:14;;;;;;;0.70;0.50;;;;;;;29.78;24.03;96750.53;5066139;28;20041;-81
2022/09/29 01:34:53;;;;;;;1.00;0.60;;;;;;;29.21;24.43;96741.31;5062876;28;20436;-81
2022/09/29 01:37:40;;;;;;;0.88;0.75;;;;;;;28.63;25.31;96746.13;5066725;28;20037;-81
2022/09/29 01:40:12;;;;;;;1.00;0.60;;;;;;;28.48;25.20;96747.44;5066072;28;20036;-81
2022/09/29 01:43:18;;;;;;;3.03;0.90;;;;;;;28.56;24.99;96757.84;5063956;28;20055;-81
2022/09/29 01:45:56;;;;;;;0.95;0.82;;;;;;;28.96;24.58;96753.41;4960846;28;20039;-81
2022/09/29 01:48:30;;;;;;;0.88;0.77;;;;;;;28.98;24.56;96750.84;5049009;28;20044;-81
2022/09/29 01:51:02;;;;;;;0.77;0.60;;;;;;;29.45;24.08;96746.66;5060967;28;20170;-81
2022/09/29 01:53:36;;;;;;;1.17;0.70;;;;;;;29.55;23.71;96751.63;5067521;28;20122;-81
2022/09/29 01:56:13;;;;;;;1.45;0.88;;;;;;;29.62;23.87;96756.81;5056702;28;20041;-81
2022/09/29 01:58:46;;;;;;;0.70;0.63;;;;;;;29.90;23.58;96760.63;5069212;28;20111;-81
2022/09/29 02:01:15;;;;;;;1.95;0.80;;;;;;;29.85;23.28;96769.09;5063518;28;20040;-80
2022/09/29 02:03:47;;;;;;;2.13;0.82;;;;;;;29.99;23.00;96768.91;5076163;28;20564;-81
2022/09/29 02:06:26;;;;;;;2.33;0.80;;;;;;;30.13;23.25;96767.19;5073558;28;20029;-80
2022/09/29 02:08:55;;;;;;;1.10;0.85;;;;;;;30.37;22.60;96770.44;5083072;28;20032;-81
2022/09/29 02:11:21;;;;;;;0.77;0.77;;;;;;;30.52;22.77;96768.19;5073488;28;20040;-81
2022/09/29 02:14:09;;;;;;;1.08;0.68;;;;;;;30.59;22.67;96764.09;5076350;28;20131;-81
2022/09/29 02:16:40;;;;;;;0.75;0.50;;;;;;;30.41;22.83;96767.38;5073791;28;20564;-81
2022/09/29 02:19:09;;;;;;;;;;;;;;;30.22;22.86;96764.16;5084717;28;20404;-81
2022/09/29 02:21:36;;;;;;;0.95;0.60;;;;;;;30.48;22.51;96764.81;5072052;28;19920;-80
2022/09/29 02:24:02;;;;;;;0.60;0.60;;;;;;;30.64;22.15;96772.59;5074810;28;20053;-81
2022/09/29 02:26:36;;;;;;;1.02;0.68;;;;;;;30.63;22.08;96767.44;5061196;28;20036;-80
2022/09/29 02:29:03;;;;;;;1.27;0.70;;;;;;;30.72;21.84;96778.53;5059911;28;20154;-81
2022/09/29 02:31:31;;;;;;;0.60;0.50;;;;;;;30.74;21.92;96776.75;5074158;28;20036;-81
2022/09/29 02:34:00;;;;;;;2.30;0.52;;;;;;;30.75;22.21;96781.16;5068569;28;20037;-81
2022/09/29 02:36:52;;;;;;;0.50;0.50;;;;;;;30.74;22.62;96787.31;5074358;28;20032;-80
2022/09/29 02:39:57;;;;;;;0.80;0.50;;;;;;;30.64;22.20;96783.94;5067805;28;20107;-81
2022/09/29 02:42:32;;;;;;;0.60;0.57;;;;;;;30.55;22.59;96777.72;5053610;28;20039;-81
2022/09/29 02:45:27;;;;;;;0.60;0.60;;;;;;;30.52;22.41;96785.19;5060730;28;20425;-81
2022/09/29 02:48:12;;;;;;;0.63;0.38;;;;;;;30.60;22.74;96774.13;5045634;28;20036;-81
2022/09/29 02:51:14;;;;;;;0.75;0.60;;;;;;;30.60;22.33;96779.78;5063472;28;20549;-81
2022/09/29 02:53:59;;;;;;;0.75;0.60;;;;;;;30.57;21.99;96784.41;5071814;28;20115;-81
2022/09/29 02:56:53;;;;;;;0.70;0.50;;;;;;;30.63;22.82;96790.88;5073947;28;20093;-81
2022/09/29 02:59:51;;;;;;;0.40;0.40;;;;;;;30.58;22.51;96785.97;5064595;28;20518;-81
2022/09/29 03:02:24;;;;;;;0.73;0.50;;;;;;;30.11;22.72;96783.16;5063665;28;20552;-81
2022/09/29 03:04:52;;;;;;;0.73;0.70;;;;;;;29.79;23.38;96782.44;5055849;28;20271;-81
2022/09/29 03:07:19;;;;;;;0.70;0.50;;;;;;;29.77;23.49;96779.31;5072115;28;20059;-80
2022/09/29 03:09:45;;;;;;;0.28;0.28;;;;;;;29.87;23.18;96775.03;5069369;28;20066;-81
2022/09/29 03:12:12;;;;;;;1.27;0.80;;;;;;;29.74;23.35;96774.63;5067219;28;20032;-80
2022/09/29 03:14:38;;;;;;;0.85;0.63;;;;;;;29.77;23.72;96770.84;5068333;28;20565;-81
2022/09/29 03:17:04;;;;;;;3.45;0.63;;;;;;;30.05;23.16;96772.56;5066081;28;20559;-81
2022/09/29 03:19:30;;;;;;;0.55;0.50;;;;;;;29.97;23.20;96770.69;5043807;28;20491;-80
2022/09/29 03:21:56;;;;;;;4.22;1.65;;;;;;;29.66;23.61;96770.75;5066827;28;20083;-80
2022/09/29 03:24:22;;;;;;;1.20;0.63;;;;;;;29.52;23.75;96774.50;5064069;28;20047;-80
2022/09/29 03:26:48;;;;;;;0.60;0.52;;;;;;;29.54;23.95;96777.59;5067405;28;20040;-80
2022/09/29 03:29:14;;;;;;;1.10;0.70;;;;;;;29.41;23.89;96775.94;5059306;28;20045;-80
2022/09/29 03:31:40;;;;;;;1.02;0.63;;;;;;;29.22;24.19;96771.91;5063381;28;20037;-81
2022/09/29 03:34:06;;;;;;;0.63;0.47;;;;;;;28.99;24.08;96769.34;5064949;28;20128;-81
2022/09/29 03:36:32;;;;;;;1.25;0.80;;;;;;;28.90;24.38;96775.94;5062045;28;20033;-80
2022/09/29 03:38:58;;;;;;;0.70;0.40;;;;;;;28.85;24.46;96765.34;5065411;28;20044;-81
2022/09/29 03:41:24;;;;;;;0.60;0.50;;;;;;;28.87;24.62;96776.19;5064691;28;20029;-80
2022/09/29 03:43:50;;;;;;;0.98;0.45;;;;;;;29.28;24.10;96761.44;5069346;28;20051;-81
2022/09/29 03:46:17;;;;;;;0.90;0.52;;;;;;;29.80;23.21;96773.41;5064010;28;20041;-81
2022/09/29 03:48:43;;;;;;;0.90;0.70;;;;;;;30.20;22.69;96768.78;5069583;28;20029;-81
2022/09/29 03:51:09;;;;;;;1.15;0.90;;;;;;;30.23;22.88;96771.38;5068791;28;20028;-81
2022/09/29 03:53:36;;;;;;;0.40;0.40;;;;;;;30.20;22.79;96777.28;5067593;28;20502;-80
2022/09/29 03:56:02;;;;;;;1.75;0.40;;;;;;;30.24;22.87;96775.75;5059014;28;20044;-81
2022/09/29 03:58:28;;;;;;;0.32;0.32;;;;;;;30.32;22.43;96773.19;5060000;28;20151;-80
2022/09/29 04:00:54;;;;;;;0.50;0.50;;;;;;;30.08;22.86;96784.94;5064306;28;20060;-80
2022/09/29 04:03:21;;;;;;;0.50;0.50;;;;;;;29.74;23.36;96783.91;5063359;28;20036;-81
2022/09/29 04:05:48;;;;;;;0.73;0.50;;;;;;;29.42;23.73;96777.50;5071888;28;20028;-80
2022/09/29 04:08:14;;;;;;;0.60;0.50;;;;;;;29.06;24.05;96783.81;5073797;28;20036;-80
2022/09/29 04:10:41;;;;;;;0.52;0.50;;;;;;;28.92;24.33;96775.44;5056595;28;20048;-81
2022/09/29 04:13:08;;;;;;;0.50;0.50;;;;;;;29.02;24.02;96774.78;5042660;28;20398;-80
2022/09/29 04:15:34;;;;;;;0.50;0.50;;;;;;;29.32;24.02;96770.47;5068936;28;20501;-80
2022/09/29 04:18:04;;;;;;;0.75;0.68;;;;;;;29.60;23.54;96778.41;5070219;28;20037;-80
2022/09/29 04:20:30;;;;;;;0.33;0.33;;;;;;;29.55;23.42;96774.25;5064507;28;20036;-80
2022/09/29 04:22:57;;;;;;;1.17;0.60;;;;;;;29.27;23.58;96779.66;5064396;28;20037;-80
2022/09/29 04:25:23;;;;;;;1.67;0.55;;;;;;;29.20;23.79;96777.28;5045761;28;20032;-80
2022/09/29 04:27:49;;;;;;;1.02;0.70;;;;;;;29.25;23.50;96773.75;5064789;28;20044;-80
2022/09/29 04:30:15;;;;;;;1.20;0.68;;;;;;;29.12;23.89;96770.53;5067228;28;20071;-82
2022/09/29 04:32:42;;;;;;;4.63;1.95;;;;;;;28.89;23.92;96767.97;5072008;28;20115;-81
2022/09/29 04:35:08;;;;;;;0.93;0.60;;;;;;;28.83;24.42;96769.94;5065297;28;20040;-81
2022/09/29 04:37:34;;;;;;;0.85;0.60;;;;;;;29.23;23.81;96775.53;5045163;28;20041;-82
2022/09/29 04:40:02;;;;;;;0.65;0.60;;;;;;;29.02;23.91;96785.31;5061314;28;20041;-81
2022/09/29 04:42:28;;;;;;;0.50;0.50;;;;;;;28.56;24.51;96780.44;5056692;28;20029;-80
2022/09/29 04:44:54;;;;;;;0.82;0.50;;;;;;;28.44;24.86;96783.59;5061805;28;20045;-81
2022/09/29 04:47:20;;;;;;;0.80;0.60;;;;;;;28.22;24.90;96784.09;5063857;28;20040;-80
2022/09/29 04:49:46;;;;;;;0.60;0.60;;;;;;;28.58;24.87;96785.56;5044283;28;20037;-80
2022/09/29 04:52:13;;;;;;;0.60;0.60;;;;;;;28.85;24.14;96790.78;5061231;28;20054;-80
2022/09/29 04:54:39;;;;;;;0.50;0.50;;;;;;;28.87;24.39;96785.41;5062158;28;20028;-80
2022/09/29 04:57:06;;;;;;;0.60;0.60;;;;;;;29.22;23.98;96796.59;5052043;28;20037;-80
2022/09/29 04:59:32;;;;;;;1.55;0.73;;;;;;;29.50;23.57;96799.69;5072288;28;20032;-81
2022/09/29 05:01:59;;;;;;;0.60;0.60;;;;;;;29.70;23.44;96802.41;5071600;28;20109;-81
2022/09/29 05:04:25;;;;;;;0.85;0.50;;;;;;;29.77;23.08;96804.78;5073248;28;20036;-81
2022/09/29 05:06:51;;;;;;;0.75;0.60;;;;;;;29.64;23.08;96810.81;5073700;28;20521;-81
2022/09/29 05:09:17;;;;;;;0.60;0.43;;;;;;;29.75;22.86;96810.16;5073228;28;20040;-81
2022/09/29 05:11:43;;;;;;;0.95;0.50;;;;;;;29.81;22.96;96830.81;5065460;28;20028;-81
2022/09/29 05:14:12;;;;;;;0.80;0.47;;;;;;;29.98;22.85;96826.81;5068455;28;20551;-81
2022/09/29 05:16:38;;;;;;;1.35;0.60;;;;;;;29.98;22.83;96828.88;5073184;28;20044;-81
2022/09/29 05:19:04;;;;;;;0.63;0.63;;;;;;;29.62;23.28;96826.75;5073094;28;20480;-81
2022/09/29 05:21:30;;;;;;;1.02;0.70;;;;;;;29.29;23.59;96836.50;5071972;28;20082;-81
2022/09/29 05:23:57;;;;;;;0.70;0.60;;;;;;;29.10;24.12;96832.41;5073423;28;20028;-81
2022/09/29 05:26:23;;;;;;;0.80;0.63;;;;;;;29.10;24.11;96831.66;5073188;28;20115;-81
2022/09/29 05:28:49;;;;;;;0.68;0.55;;;;;;;29.19;23.94;96835.13;5061063;28;20487;-81
2022/09/29 05:31:16;;;;;;;0.65;0.65;;;;;;;29.40;23.90;96828.13;5052435;28;20037;-82
2022/09/29 05:33:42;;;;;;;0.77;0.50;;;;;;;29.19;24.04;96832.31;5052487;28;20053;-81
2022/09/29 05:36:10;;;;;;;0.75;0.55;;;;;;;29.02;24.26;96825.66;5052391;28;20033;-81
2022/09/29 05:38:37;;;;;;;0.77;0.70;;;;;;;28.75;24.62;96823.31;5052437;28;20068;-81
2022/09/29 05:41:05;;;;;;;0.70;0.50;;;;;;;28.53;25.09;96829.44;5052978;28;20037;-81
2022/09/29 05:43:34;;;;;;;0.80;0.70;;;;;;;28.41;25.24;96835.41;5071687;28;20054;-81
2022/09/29 05:46:05;;;;;;;0.60;0.60;;;;;;;28.44;25.26;96831.59;5072044;28;20036;-81
2022/09/29 05:48:31;;;;;;;1.38;0.60;;;;;;;28.59;25.07;96835.19;5068955;28;20029;-81
2022/09/29 05:50:59;;;;;;;0.75;0.70;;;;;;;28.55;25.23;96837.41;5053052;28;20086;-81
2022/09/29 05:53:25;;;;;;;0.70;0.70;;;;;;;28.49;25.34;96848.63;5053081;28;20026;-81
2022/09/29 05:55:52;;;;;;;0.70;0.70;;;;;;;28.47;25.28;96836.28;5052908;28;20102;-81
2022/09/29 05:58:18;;;;;;;0.73;0.50;;;;;;;28.37;25.35;96830.00;5055072;28;20044;-80
2022/09/29 06:00:45;;;;;;;1.40;0.70;;;;;;;28.14;25.49;96833.00;5071908;28;20033;-81
2022/09/29 06:03:11;;;;;;;1.42;0.85;;;;;;;28.27;25.63;96839.06;5057288;28;20029;-81
2022/09/29 06:05:38;;;;;;;0.60;0.50;;;;;;;28.36;25.49;96844.59;5052833;28;20032;-81
2022/09/29 06:08:05;;;;;;;1.13;1.00;;;;;;;28.53;25.27;96843.53;5053004;28;20033;-81
2022/09/29 06:10:31;;;;;;;0.98;0.70;;;;;;;28.55;25.16;96835.34;5052689;28;20390;-81
2022/09/29 06:12:57;;;;;;;0.93;0.60;;;;;;;28.63;25.59;96836.53;5057006;28;20037;-81
2022/09/29 06:15:24;;;;;;;0.50;0.40;;;;;;;28.92;25.04;96834.78;5053119;28;20116;-81
2022/09/29 06:17:57;;;;;;;0.70;0.70;;;;;;;29.24;24.65;96833.63;5072649;28;20045;-80
2022/09/29 06:20:24;;;;;;;1.17;0.60;;;;;;;29.45;23.94;96848.47;5072007;28;20025;-80
2022/09/29 06:22:53;;;;;;;1.35;0.90;;;;;;;29.00;24.64;96842.34;5072853;28;20052;-81
2022/09/29 06:25:19;;;;;;;0.63;0.60;;;;;;;28.61;25.10;96839.03;5072718;28;20032;-81
2022/09/29 06:27:46;;;;;;;0.50;0.50;;;;;;;28.35;25.62;96840.22;5072715;28;20459;-81
2022/09/29 06:30:13;;;;;;;0.73;0.65;;;;;;;27.84;26.13;96841.50;5072099;28;20050;-82
2022/09/29 06:32:39;;;;;;;1.73;0.70;;;;;;;27.61;26.33;96841.66;5071640;28;20029;-81
2022/09/29 06:37:55;;;;;;;0.90;0.73;;;;;;;27.99;26.09;96836.63;5052510;28;20112;-81
2022/09/29 06:40:26;;;;;;;0.68;0.68;;;;;;;28.08;25.98;96837.78;5052774;28;20025;-80
2022/09/29 06:42:52;;;;;;;0.98;0.80;;;;;;;28.07;25.99;96839.84;5062950;28;20017;-80
2022/09/29 06:45:18;;;;;;;0.60;0.60;;;;;;;28.26;25.93;96837.53;5067481;28;20032;-81
2022/09/29 06:47:44;;;;;;;0.95;0.85;;;;;;;28.52;25.62;96841.22;5071305;28;20489;-81
2022/09/29 06:50:10;;;;;;;0.93;0.80;;;;;;;28.66;25.11;96849.63;5074588;28;20027;-81
2022/09/29 06:52:36;;;;;;;1.80;0.98;;;;;;;28.60;25.59;96845.19;5074027;28;20502;-80
2022/09/29 06:55:02;;;;;;;1.50;1.10;;;;;;;28.57;25.56;96841.28;5056431;28;20108;-81
2022/09/29 06:57:28;;;;;;;1.60;1.00;;;;;;;28.49;25.63;96851.47;5055951;28;20497;-81
2022/09/29 06:59:54;;;;;;;1.23;1.00;;;;;;;28.51;25.48;96842.47;5071554;28;20072;-81
2022/09/29 07:02:20;;;;;;;1.17;1.05;;;;;;;28.03;26.30;96842.84;5075045;28;20025;-81
2022/09/29 07:04:47;;;;;;;1.50;1.05;;;;;;;27.89;26.94;96837.97;5057984;28;20043;-81
2022/09/29 07:07:14;;;;;;;1.45;0.90;;;;;;;27.86;27.08;96838.97;5075972;28;20027;-80
2022/09/29 07:09:41;;;;;;;1.75;0.90;;;;;;;28.47;25.87;96842.69;5072888;28;20040;-82
2022/09/29 07:12:07;;;;;;;1.98;1.00;;;;;;;28.51;26.08;96846.09;5055880;28;20032;-80
2022/09/29 07:14:33;;;;;;;1.10;1.00;;;;;;;27.74;27.18;96844.94;5055496;28;20482;-81
2022/09/29 07:17:00;;;;;;;1.42;1.13;;;;;;;27.80;27.19;96849.38;5055367;28;20041;-81
2022/09/29 07:19:26;;;;;;;1.35;1.25;;;;;;;27.67;27.15;96856.59;5055809;28;20394;-80
2022/09/29 07:21:52;;;;;;;1.95;1.00;;;;;;;28.06;26.93;96860.84;5055762;28;20029;-80
2022/09/29 07:24:18;;;;;;;2.30;1.20;;;;;;;28.41;26.29;96858.00;5064300;28;20032;-80
2022/09/29 07:26:44;;;;;;;1.25;1.00;;;;;;;27.90;26.82;96859.31;5072057;28;20044;-80
2022/09/29 07:29:10;;;;;;;1.38;0.90;;;;;;;27.61;27.02;96864.22;5055668;28;20040;-80
2022/09/29 07:31:38;;;;;;;2.75;1.45;;;;;;;27.51;27.33;96876.84;5054443;28;20040;-81
2022/09/29 07:34:04;;;;;;;3.22;1.83;;;;;;;27.90;26.70;96872.63;5055235;28;20037;-81
2022/09/29 07:36:30;;;;;;;1.20;0.90;;;;;;;28.52;26.34;96873.03;5037641;28;20398;-80
2022/09/29 07:38:56;;;;;;;1.55;1.00;;;;;;;28.87;25.75;96869.41;5055245;28;20581;-80
2022/09/29 07:41:22;;;;;;;2.63;0.93;;;;;;;29.31;24.79;96884.84;5063725;28;20029;-80
2022/09/29 07:43:48;;;;;;;0.98;0.88;;;;;;;29.54;24.23;96873.75;5053656;28;20032;-80
2022/09/29 07:46:14;;;;;;;1.52;0.85;;;;;;;29.48;24.95;96876.53;5055195;28;20021;-80
2022/09/29 07:48:43;;;;;;;1.33;0.98;;;;;;;29.51;24.67;96883.22;5060158;28;20034;-80
2022/09/29 07:51:15;;;;;;;1.23;1.05;;;;;;;28.80;25.47;96887.56;5075482;28;20028;-80
2022/09/29 07:53:41;;;;;;;0.93;0.82;;;;;;;28.72;25.50;96889.25;5075199;28;20033;-81
2022/09/29 07:56:20;;;;;;;1.40;0.95;;;;;;;29.14;25.49;96891.56;5075305;28;20041;-80
2022/09/29 07:58:48;;;;;;;0.80;0.80;;;;;;;28.83;25.72;96888.63;5074614;28;20040;-80
2022/09/29 08:01:15;;;;;;;0.95;0.70;;;;;;;28.45;25.92;96892.47;5065997;28;20033;-81
2022/09/29 08:03:47;;;;;;;3.38;1.10;;;;;;;28.49;25.99;96893.03;5054504;28;20376;-81
2022/09/29 08:06:13;;;;;;;1.35;0.93;;;;;;;28.73;25.76;96896.47;5054932;28;20033;-80
2022/09/29 08:08:40;;;;;;;0.80;0.60;;;;;;;29.17;25.54;96899.06;5054819;28;20064;-80
2022/09/29 08:11:13;;;;;;;1.05;0.90;;;;;;;29.38;25.18;96897.78;5058255;28;20079;-81
2022/09/29 08:13:40;;;;;;;1.13;0.88;;;;;;;29.57;25.12;96903.88;5065632;28;20128;-80
2022/09/29 08:16:09;;;;;;;1.05;0.93;;;;;;;29.71;25.51;96905.81;5074360;28;20051;-80
2022/09/29 08:18:35;;;;;;;0.80;0.80;;;;;;;29.03;26.56;96897.09;5055646;28;20474;-81
2022/09/29 08:21:03;;;;;;;0.68;0.55;;;;;;;28.71;26.40;96899.00;5074710;28;20036;-80
2022/09/29 08:23:30;;;;;;;1.00;0.55;;;;;;;28.41;26.68;96898.31;5074733;28;20141;-81
2022/09/29 08:26:01;;;;;;;0.75;0.60;;;;;;;27.79;27.19;96909.91;5074095;28;20032;-81
2022/09/29 08:28:28;;;;;;;;;;;;;;;28.35;25.99;96910.81;5073123;28;20031;-80
2022/09/29 08:30:54;;;;;;;0.88;0.60;;;;;;;28.63;26.30;96909.19;5053586;28;19959;-81
2022/09/29 08:33:20;;;;;;;2.05;0.50;;;;;;;29.11;25.30;96909.50;5068208;28;20036;-81
2022/09/29 08:35:53;;;;;;;0.70;0.57;;;;;;;28.89;25.39;96907.22;5059099;28;20505;-80
2022/09/29 08:38:23;;;;;;;2.63;0.60;;;;;;;29.27;25.24;96909.72;5054187;28;20036;-80
2022/09/29 08:40:49;;;;;;;0.55;0.55;;;;;;;29.05;25.20;96909.47;5055665;28;20025;-81
2022/09/29 08:43:29;;;;;;;1.30;0.60;;;;;;;28.08;26.43;96914.00;5074142;28;20538;-81
2022/09/29 08:46:07;;;;;;;2.47;0.50;;;;;;;27.52;26.61;96921.47;5073918;28;20157;-81
2022/09/29 08:48:38;;;;;;;0.77;0.52;;;;;;;28.12;25.96;96920.19;5054134;28;20032;-81
2022/09/29 08:51:20;;;;;;;0.93;0.50;;;;;;;28.66;25.47;96925.91;5074038;28;20033;-81
2022/09/29 08:53:49;;;;;;;0.52;0.40;;;;;;;28.25;26.40;96926.28;5074040;28;20039;-81
2022/09/29 08:56:17;;;;;;;1.63;0.32;;;;;;;28.05;26.87;96918.56;5073901;28;20157;-81
2022/09/29 08:58:43;;;;;;;0.50;0.50;;;;;;;28.41;26.13;96917.28;5073763;28;20032;-81
2022/09/29 09:01:22;;;;;;;1.63;0.60;;;;;;;27.40;27.84;96923.28;5073076;28;20393;-81
2022/09/29 09:04:19;;;;;;;0.40;0.40;;;;;;;28.51;26.73;96918.72;5073218;28;20032;-81
2022/09/29 09:07:06;;;;;;;1.85;0.28;;;;;;;28.18;27.52;96919.00;5073551;28;20025;-81
2022/09/29 09:09:37;;;;;;;1.70;0.50;;;;;;;28.02;26.79;96919.53;5068455;28;20025;-81
2022/09/29 09:12:23;;;;;;;0.75;0.40;;;;;;;27.54;27.07;96921.75;5073017;28;20043;-81
2022/09/29 09:15:08;;;;;;;0.30;0.30;;;;;;;25.84;29.28;96917.50;5073082;28;20036;-81
2022/09/29 09:18:02;;;;;;;0.50;0.40;;;;;;;26.12;28.78;96926.63;5073384;28;20028;-80
2022/09/29 09:20:56;;;;;;;0.20;0.20;;;;;;;27.63;28.18;96941.41;5073578;28;20032;-81
2022/09/29 09:23:47;;;;;;;0.60;0.50;;;;;;;28.11;27.05;96930.72;5073466;28;20025;-80
2022/09/29 09:26:13;;;;;;;1.65;0.38;;;;;;;29.12;25.95;96931.66;5066341;28;20060;-81
2022/09/29 09:28:52;;;;;;;0.20;0.20;;;;;;;29.55;25.46;96929.03;5035484;28;20451;-81
2022/09/29 09:31:34;;;;;;;0.63;0.40;;;;;;;29.93;25.57;96932.28;5052484;28;20116;-81
2022/09/29 09:34:10;;;;;;;0.47;0.40;;;;;;;30.14;24.80;96926.53;5052962;28;20029;-81
2022/09/29 09:36:44;;;;;;;0.90;0.30;;;;;;;30.20;25.05;96919.63;5069012;28;20093;-81
2022/09/29 09:39:24;;;;;;;1.17;0.47;;;;;;;29.28;25.85;96927.47;5071775;28;20082;-81
2022/09/29 09:41:53;;;;;;;1.13;0.47;;;;;;;28.27;27.34;96923.75;5052868;28;20111;-81
2022/09/29 09:44:37;;;;;;;0.57;0.35;;;;;;;27.27;28.91;96927.63;5069394;28;20028;-81
2022/09/29 09:47:14;;;;;;;0.98;0.45;;;;;;;28.20;27.52;96924.16;5061076;28;20032;-81
2022/09/29 09:49:46;;;;;;;0.52;0.38;;;;;;;29.53;26.13;96923.88;5054955;28;20025;-81
2022/09/29 09:52:20;;;;;;;0.47;0.30;;;;;;;30.31;24.95;96924.59;5073169;28;20035;-81
2022/09/29 09:54:55;;;;;;;0.30;0.30;;;;;;;28.45;28.02;96932.75;5072728;28;20032;-81
2022/09/29 09:57:30;;;;;;;0.68;0.35;;;;;;;27.25;28.55;96942.22;5072592;28;20074;-80
2022/09/29 10:00:12;;;;;;;0.47;0.30;;;;;;;26.71;28.96;96945.41;5068052;28;20040;-80
2022/09/29 10:02:48;;;;;;;0.20;0.20;;;;;;;27.94;27.40;96944.50;5052082;28;20047;-81
2022/09/29 10:05:18;;;;;;;0.10;0.10;;;;;;;28.44;26.36;96939.69;5058056;28;20454;-80
2022/09/29 10:07:45;;;;;;;0.17;0.17;;;;;;;29.59;25.49;96938.88;5072603;28;20095;-80
2022/09/29 10:10:22;;;;;;;0.30;0.15;;;;;;;30.19;24.06;96942.78;5072893;28;20482;-80
2022/09/29 10:13:01;;;;;;;0.28;0.00;;;;;;;29.46;25.33;96941.31;5072952;28;20509;-80
2022/09/29 10:15:36;;;;;;;0.20;0.20;;;;;;;28.08;26.46;96952.22;5072464;28;20063;-80
2022/09/29 10:18:12;;;;;;;0.20;0.20;;;;;;;28.33;26.54;96944.41;5058646;28;20029;-80
2022/09/29 10:20:40;;;;;;;0.10;0.10;;;;;;;29.37;24.49;96945.06;5052881;28;20121;-80
2022/09/29 10:23:18;;;;;;;0.10;0.10;;;;;;;30.34;24.98;96946.28;5052919;28;20130;-80
2022/09/29 10:25:53;;;;;;;2.30;0.20;;;;;;;30.19;23.56;96945.63;5056547;28;20091;-80
2022/09/29 10:28:21;;;;;;;0.20;0.20;;;;;;;30.37;23.65;96946.03;5056834;28;20103;-80
2022/09/29 10:30:47;;;;;;;0.20;0.20;;;;;;;29.37;23.87;96950.72;5041910;28;20051;-80
2022/09/29 10:33:17;;;;;;;0.13;0.13;;;;;;;29.05;24.45;96960.34;5041568;28;20375;-80
2022/09/29 10:35:45;;;;;;;0.30;0.20;;;;;;;29.07;24.45;96954.97;5056982;28;20035;-80
2022/09/29 10:38:22;;;;;;;0.20;0.20;;;;;;;29.40;24.14;96955.41;5060442;28;20090;-80
2022/09/29 10:41:00;;;;;;;1.17;0.20;;;;;;;29.07;24.90;96957.78;5076586;28;20032;-80
2022/09/29 10:43:35;;;;;;;1.85;0.20;;;;;;;29.85;24.36;96956.63;5076360;28;20124;-80
2022/09/29 10:46:03;;;;;;;0.98;0.15;;;;;;;30.06;22.77;96954.50;5058759;28;20433;-80
2022/09/29 10:48:29;;;;;;;0.10;0.10;;;;;;;29.60;24.04;96956.63;5076182;28;20045;-80
2022/09/29 10:51:02;;;;;;;0.30;0.20;;;;;;;29.62;23.71;96957.66;5075563;28;20024;-80
2022/09/29 10:53:41;;;;;;;0.10;0.10;;;;;;;29.32;24.54;96965.56;5076334;28;20040;-80
2022/09/29 10:56:17;;;;;;;0.03;0.03;;;;;;;29.43;24.70;96962.88;5076482;28;20037;-80
2022/09/29 10:58:51;;;;;;;0.52;0.10;;;;;;;29.42;24.62;96966.19;5076014;28;20454;-80
2022/09/29 11:01:20;;;;;;;0.10;0.10;;;;;;;29.13;23.96;96966.31;5075241;28;20025;-81
2022/09/29 11:04:05;;;;;;;0.80;0.20;;;;;;;29.93;24.04;96980.41;5075596;28;20078;-80
2022/09/29 11:06:35;;;;;;;0.13;0.13;;;;;;;28.80;25.42;96974.38;5075686;28;20024;-80
2022/09/29 11:09:24;;;;;;;0.30;0.15;;;;;;;29.10;24.63;96984.28;5068053;28;20029;-80
2022/09/29 11:11:56;;;;;;;0.28;0.28;;;;;;;29.09;24.97;96994.81;5075921;28;20039;-80
2022/09/29 11:14:31;;;;;;;0.08;0.08;;;;;;;29.24;24.30;96995.53;5057926;28;20052;-80
2022/09/29 11:17:00;;;;;;;0.20;0.20;;;;;;;29.61;23.44;96997.78;5071241;28;20109;-80
2022/09/29 11:19:28;;;;;;;0.30;0.30;;;;;;;29.07;24.31;97000.19;5058246;28;20040;-80
2022/09/29 11:22:24;;;;;;;0.70;0.20;;;;;;;28.88;24.86;96996.06;5061288;28;20045;-80
2022/09/29 11:24:57;;;;;;;0.90;0.10;;;;;;;29.52;24.12;96998.72;5075048;28;20107;-80
2022/09/29 11:27:55;;;;;;;0.10;0.10;;;;;;;29.09;24.51;97000.47;5075976;28;20040;-80
2022/09/29 11:30:25;;;;;;;0.15;0.10;;;;;;;29.28;24.00;97001.78;5075380;28;20036;-81
2022/09/29 11:32:54;;;;;;;;;;;;;;;29.72;22.41;97000.72;5075267;28;20389;-81
2022/09/29 11:35:35;;;;;;;0.10;0.10;;;;;;;29.65;24.23;96987.03;5067349;28;19917;-80
2022/09/29 11:38:27;;;;;;;0.30;0.20;;;;;;;29.56;25.50;96995.66;5052993;28;20040;-80
2022/09/29 11:41:19;;;;;;;0.22;0.20;;;;;;;28.96;24.93;96997.22;5055325;28;20037;-80
2022/09/29 11:44:26;;;;;;;0.13;0.10;;;;;;;29.37;25.42;97004.47;5075037;28;20032;-80
2022/09/29 11:46:57;;;;;;;0.30;0.20;;;;;;;27.59;28.14;97002.06;5075394;28;20024;-81
2022/09/29 11:50:02;;;;;;;0.20;0.20;;;;;;;26.61;27.17;96994.56;5075128;28;20082;-80
2022/09/29 11:52:47;;;;;;;0.10;0.10;;;;;;;27.23;27.74;97003.94;5075340;28;20071;-80
2022/09/29 11:55:28;;;;;;;0.55;0.20;;;;;;;27.05;28.31;97011.72;5075402;28;20086;-80
2022/09/29 11:58:13;;;;;;;0.20;0.10;;;;;;;28.30;27.11;96999.00;5055051;28;20123;-80